首页
METAR-TAF:

METAR-TAF

机场 :

多倫多皮爾遜國際機場

多伦多, 安大略省, 加拿大

纬度: 43-40N, 经度: 079-38W, 海拔: 173米

当前天气观测

该预报发布于1小时和16分钟前的03:00 UTC
风速13节,风向西转西南
温度 -2°C
湿度 74%
气压 1024 hPa
能見度: 24.1公里
少量云层高于5100英尺
多云层高于7500英尺

METAR: CYYZ 260300Z 24013KT 15SM FEW051 BKN075 M02/M06 A3024 RMK SC2AC3 SLP251

时间: 23:16 (04:16 UTC)

预报

该预报发布于1小时和38分钟前的02:38 UTC
预报有效从26日的 03点(UTC)到 27日的 06点(UTC)
风速8节,风向西南
能見度: 10公里
少量云层高于3000英尺
多云层高于7000英尺
短暂存在
从 26日的 03点(UTC)到 26日的 04点(UTC)
能見度: 8.0公里
多云层高于3000英尺
小阵雪
成为
从 26日的 04点(UTC)到 26日的 06点(UTC)
风速8节,风向西转西北
从 26日的 0600点(UTC)
风速8节,风向西转西北
能見度: 10公里
少量云层高于2000英尺
成为
从 26日的 11点(UTC)到 26日的 12点(UTC)
风速3节,风向多变
成为
从 26日的 13点(UTC)到 26日的 15点(UTC)
风速8节,风向南转南东
从 26日的 1600点(UTC)
风速10节,风向南转南东
能見度: 10公里
天空无云
成为
从 27日的 00点(UTC)到 27日的 02点(UTC)
风速7节,风向

TAF: CYYZ 260238Z 2603/2706 22008KT P6SM FEW030 BKN070 TEMPO 2603/2604 5SM -SHSN BKN030 BECMG 2604/2606 29008KT FM260600 29008KT P6SM FEW020 BECMG 2611/2612 VRB03KT BECMG 2613/2615 16008KT FM261600 16010KT P6SM SKC BECMG 2700/2702 09007KT RMK NXT FCST BY 260600Z

超过4000个机场的气象观测和天气预报(METAR&TAF报告)。

可查询的气象台以黄色和红色小点在地图上表示。

将鼠标移到小点上方,可查看气象台名称。

然后点击查看天气观测和预报。

如需切换地图:点击带黑十字的绿色按钮放大地图;点击带横线的绿色按钮缩小地图;或者点击绿色箭头查看邻近地区的地图。


METAR-TAF: